createdAt,value
2023-11-13T00:02:33.654Z,98172.37
2023-11-13T00:05:12.643Z,98172.44
2023-11-13T00:07:47.360Z,98171.35
2023-11-13T00:10:23.994Z,98173.68
2023-11-13T00:13:03.602Z,98175.52
2023-11-13T00:16:13.008Z,98176.77
2023-11-13T00:19:13.092Z,98175.18
2023-11-13T00:22:32.931Z,98173.73
2023-11-13T00:25:50.003Z,98176.70
2023-11-13T00:28:43.710Z,98178.30
2023-11-13T00:31:17.533Z,98178.69
2023-11-13T00:33:51.277Z,98186.92
2023-11-13T00:36:24.867Z,98182.73
2023-11-13T00:38:58.535Z,98185.35
2023-11-13T00:41:36.205Z,98190.02
2023-11-13T00:44:23.958Z,98193.94
2023-11-13T00:46:58.309Z,98199.65
2023-11-13T00:49:32.296Z,98194.54
2023-11-13T00:52:06.463Z,98194.86
2023-11-13T00:54:39.975Z,98195.31
2023-11-13T00:57:13.414Z,98198.74
2023-11-13T00:59:47.574Z,98201.88
2023-11-13T01:02:23.213Z,98207.23
2023-11-13T01:04:56.684Z,98211.13
2023-11-13T01:07:30.370Z,98212.47
2023-11-13T01:10:05.571Z,98216.06
2023-11-13T01:12:39.291Z,98212.98
2023-11-13T01:15:14.328Z,98216.05
2023-11-13T01:17:48.042Z,98216.74
2023-11-13T01:20:21.801Z,98218.29
2023-11-13T01:22:55.776Z,98222.27
2023-11-13T01:25:29.573Z,98222.95
2023-11-13T01:28:04.164Z,98217.77
2023-11-13T01:30:38.006Z,98220.85
2023-11-13T01:33:12.330Z,98216.45
2023-11-13T01:35:46.278Z,98214.41
2023-11-13T01:38:20.450Z,98210.17
2023-11-13T01:40:55.368Z,98204.73
2023-11-13T01:43:29.673Z,98205.98
2023-11-13T01:46:04.991Z,98206.55
2023-11-13T01:48:38.811Z,98206.46
2023-11-13T01:51:12.513Z,98202.59
2023-11-13T01:53:46.476Z,98195.95
2023-11-13T01:56:21.904Z,98202.28
2023-11-13T01:58:56.973Z,98210.98
2023-11-13T02:01:32.406Z,98209.19
2023-11-13T02:04:06.106Z,98201.98
2023-11-13T02:06:39.746Z,98203.64
2023-11-13T02:09:15.590Z,98209.17
2023-11-13T02:11:49.321Z,98209.88
2023-11-13T02:14:23.089Z,98208.83
2023-11-13T02:17:06.426Z,98213.02
2023-11-13T02:19:40.030Z,98212.80
2023-11-13T02:22:13.622Z,98217.24
2023-11-13T02:24:47.188Z,98220.01
2023-11-13T02:27:23.454Z,98221.47
2023-11-13T02:29:56.931Z,98222.47
2023-11-13T02:32:31.591Z,98222.47
2023-11-13T02:35:06.017Z,98222.63
2023-11-13T02:37:39.448Z,98223.11
2023-11-13T02:40:14.958Z,98225.39
2023-11-13T02:42:48.440Z,98227.45
2023-11-13T02:45:24.297Z,98231.80
2023-11-13T02:47:57.824Z,98226.45
2023-11-13T02:50:33.067Z,98229.84
2023-11-13T02:53:06.741Z,98232.10
2023-11-13T02:55:40.190Z,98226.66
2023-11-13T02:58:13.724Z,98228.86
2023-11-13T03:00:48.439Z,98227.36
2023-11-13T03:03:26.487Z,98226.65
2023-11-13T03:06:00.902Z,98223.17
2023-11-13T03:08:34.461Z,98221.27
2023-11-13T03:11:08.248Z,98216.96
2023-11-13T03:13:42.341Z,98219.67
2023-11-13T03:16:17.178Z,98212.20
2023-11-13T03:18:50.711Z,98209.48
2023-11-13T03:21:24.810Z,98208.92
2023-11-13T03:23:58.283Z,98209.85
2023-11-13T03:26:31.729Z,98205.29
2023-11-13T03:29:05.308Z,98206.01
2023-11-13T03:32:04.845Z,98210.96
2023-11-13T03:35:21.900Z,98209.86
2023-11-13T03:39:01.318Z,98207.48
2023-11-13T03:42:40.724Z,98206.01
2023-11-13T03:46:20.254Z,98199.98
2023-11-13T03:49:59.705Z,98208.44
2023-11-13T03:53:39.036Z,98207.80
2023-11-13T03:57:18.574Z,98208.98
2023-11-13T04:00:57.967Z,98205.73
2023-11-13T04:04:38.372Z,98203.05
2023-11-13T04:08:17.738Z,98205.02
2023-11-13T04:11:57.872Z,98197.48
2023-11-13T04:15:39.416Z,98194.48
2023-11-13T04:19:15.793Z,98196.48
2023-11-13T04:22:17.757Z,98191.52
2023-11-13T04:24:51.471Z,98193.83
2023-11-13T04:27:25.059Z,98193.54
2023-11-13T04:29:59.903Z,98198.26
2023-11-13T04:32:33.827Z,98201.95
2023-11-13T04:35:08.418Z,98205.49
2023-11-13T04:37:41.965Z,98203.39
2023-11-13T04:40:17.973Z,98200.30
2023-11-13T04:42:51.960Z,98201.80
2023-11-13T04:45:25.434Z,98193.62
2023-11-13T04:47:58.874Z,98201.20
2023-11-13T04:50:32.596Z,98202.80
2023-11-13T04:53:08.235Z,98205.08
2023-11-13T04:55:41.803Z,98214.98
2023-11-13T04:58:15.315Z,98222.88
2023-11-13T05:00:48.945Z,98227.27
2023-11-13T05:03:22.410Z,98231.39
2023-11-13T05:05:56.025Z,98233.52
2023-11-13T05:08:30.121Z,98235.83
2023-11-13T05:11:03.989Z,98232.26
2023-11-13T05:13:38.436Z,98235.47
2023-11-13T05:16:17.664Z,98235.09
2023-11-13T05:18:52.966Z,98233.69
2023-11-13T05:21:27.375Z,98234.84
2023-11-13T05:24:00.996Z,98238.33
2023-11-13T05:26:34.983Z,98241.84
2023-11-13T05:29:32.428Z,98244.23
2023-11-13T05:32:43.420Z,98233.67
2023-11-13T05:35:36.412Z,98236.68
2023-11-13T05:38:23.163Z,98237.52
2023-11-13T05:41:56.268Z,98237.95
2023-11-13T05:44:58.450Z,98237.45
2023-11-13T05:47:53.442Z,98242.63
2023-11-13T05:50:55.728Z,98250.22
2023-11-13T05:53:58.379Z,98247.96
2023-11-13T05:56:54.813Z,98254.02
2023-11-13T05:59:50.042Z,98255.54
2023-11-13T06:02:25.224Z,98256.58
2023-11-13T06:05:07.387Z,98255.17
2023-11-13T06:07:57.378Z,98254.72
2023-11-13T06:10:46.022Z,98256.33
2023-11-13T06:13:30.697Z,98253.19
2023-11-13T06:16:28.841Z,98250.09
2023-11-13T06:19:08.524Z,98255.70
2023-11-13T06:21:43.172Z,98256.10
2023-11-13T06:24:17.224Z,98255.94
2023-11-13T06:26:50.804Z,98262.21
2023-11-13T06:29:26.730Z,98266.73
2023-11-13T06:32:00.782Z,98267.83
2023-11-13T06:34:34.275Z,98274.92
2023-11-13T06:37:07.828Z,98277.91
2023-11-13T06:39:42.527Z,98281.27
2023-11-13T06:42:16.053Z,98284.98
2023-11-13T06:44:49.465Z,98295.64
2023-11-13T06:47:22.916Z,98294.21
2023-11-13T06:49:56.575Z,98292.64
2023-11-13T06:52:32.685Z,98298.52
2023-11-13T06:55:06.798Z,98300.07
2023-11-13T06:57:40.825Z,98300.93
2023-11-13T07:00:18.079Z,98301.67
2023-11-13T07:02:53.023Z,98303.73
2023-11-13T07:05:27.012Z,98306.87
2023-11-13T07:08:00.512Z,98300.72
2023-11-13T07:10:37.217Z,98299.07
2023-11-13T07:13:12.060Z,98297.89
2023-11-13T07:15:46.081Z,98293.28
2023-11-13T07:18:20.023Z,98292.25
2023-11-13T07:20:54.203Z,98293.89
2023-11-13T07:23:30.051Z,98295.92
2023-11-13T07:26:06.013Z,98298.53
2023-11-13T07:28:39.895Z,98303.39
2023-11-13T07:31:15.351Z,98304.44
2023-11-13T07:33:48.896Z,98308.41
2023-11-13T07:36:22.369Z,98313.70
2023-11-13T07:38:55.885Z,98314.23
2023-11-13T07:41:34.533Z,98321.72
2023-11-13T07:44:09.417Z,98322.80
2023-11-13T07:46:43.151Z,98332.40
2023-11-13T07:49:17.948Z,98339.33
2023-11-13T07:51:51.412Z,98338.77
2023-11-13T07:54:26.686Z,98338.45
2023-11-13T07:57:00.887Z,98338.63
2023-11-13T07:59:35.435Z,98341.54
2023-11-13T08:02:10.726Z,98339.75
2023-11-13T08:04:44.419Z,98340.29
2023-11-13T08:07:25.264Z,98337.50
2023-11-13T08:10:02.363Z,98338.64
2023-11-13T08:12:36.020Z,98332.33
2023-11-13T08:15:13.704Z,98335.35
2023-11-13T08:17:50.884Z,98335.14
2023-11-13T08:20:27.881Z,98334.30
2023-11-13T08:23:02.059Z,98335.70
2023-11-13T08:25:38.727Z,98330.77
2023-11-13T08:28:12.876Z,98326.67
2023-11-13T08:30:47.475Z,98332.67
2023-11-13T08:33:21.559Z,98328.88
2023-11-13T08:35:56.330Z,98319.25
2023-11-13T08:38:40.915Z,98322.86
2023-11-13T08:41:20.143Z,98324.77
2023-11-13T08:43:56.331Z,98316.33
2023-11-13T08:46:31.538Z,98317.36
2023-11-13T08:49:07.689Z,98315.81
2023-11-13T08:51:41.921Z,98314.11
2023-11-13T08:54:20.481Z,98309.95
2023-11-13T08:56:57.832Z,98307.95
2023-11-13T08:59:32.610Z,98306.96
2023-11-13T09:02:08.224Z,98297.48
2023-11-13T09:04:45.061Z,98299.54
2023-11-13T09:07:18.980Z,98303.48
2023-11-13T09:09:56.235Z,98302.54
2023-11-13T09:12:31.669Z,98302.23
2023-11-13T09:15:05.699Z,98302.52
2023-11-13T09:17:42.741Z,98299.29
2023-11-13T09:20:20.573Z,98295.43
2023-11-13T09:22:54.845Z,98294.58
2023-11-13T09:25:29.875Z,98299.92
2023-11-13T09:28:03.961Z,98303.84
2023-11-13T09:30:38.414Z,98307.70
2023-11-13T09:33:13.102Z,98306.17
2023-11-13T09:35:49.573Z,98307.12
2023-11-13T09:38:24.201Z,98310.13
2023-11-13T09:41:08.346Z,98307.47
2023-11-13T09:43:43.347Z,98302.08
2023-11-13T09:46:21.776Z,98300.75
2023-11-13T09:48:59.559Z,98298.63
2023-11-13T09:51:47.622Z,98297.77
2023-11-13T09:55:01.426Z,98292.64
2023-11-13T09:58:01.417Z,98290.79
2023-11-13T10:01:09.095Z,98290.39
2023-11-13T10:03:54.573Z,98283.70
2023-11-13T10:06:51.204Z,98280.20
2023-11-13T10:09:31.785Z,98278.47
2023-11-13T10:12:33.626Z,98271.25
2023-11-13T10:15:13.814Z,98273.11
2023-11-13T10:18:01.470Z,98271.28
2023-11-13T10:21:01.472Z,98273.55
2023-11-13T10:23:48.440Z,98272.23
2023-11-13T10:26:51.427Z,98274.48
2023-11-13T10:30:08.115Z,98275.00
2023-11-13T10:36:35.949Z,98276.13
2023-11-13T10:39:56.400Z,98275.90
2023-11-13T10:43:09.919Z,98283.20
2023-11-13T10:45:56.738Z,98278.35
2023-11-13T10:52:35.323Z,98283.42
2023-11-13T10:55:31.491Z,98281.13
2023-11-13T10:58:34.248Z,98277.08
2023-11-13T11:01:34.619Z,98269.96
2023-11-13T11:04:33.819Z,98267.84
2023-11-13T11:07:29.790Z,98264.55
2023-11-13T11:10:14.118Z,98260.73
2023-11-13T11:12:56.431Z,98264.33
2023-11-13T11:15:58.016Z,98261.16
2023-11-13T11:18:44.215Z,98263.38
2023-11-13T11:21:40.374Z,98261.30
2023-11-13T11:24:22.733Z,98261.80
2023-11-13T11:27:00.139Z,98259.36
2023-11-13T11:29:41.984Z,98256.71
2023-11-13T11:32:25.318Z,98255.59
2023-11-13T11:35:04.144Z,98250.67
2023-11-13T11:37:38.993Z,98247.52
2023-11-13T11:40:16.167Z,98244.44
2023-11-13T11:42:52.036Z,98242.66
2023-11-13T11:45:28.953Z,98243.15
2023-11-13T11:48:06.530Z,98245.56
2023-11-13T11:50:43.067Z,98248.07
2023-11-13T11:53:21.614Z,98249.48
2023-11-13T11:58:49.082Z,98241.39
2023-11-13T12:01:29.499Z,98237.38
2023-11-13T12:04:05.431Z,98231.77
2023-11-13T12:06:40.496Z,98229.52
2023-11-13T12:09:14.723Z,98225.31
2023-11-13T12:11:50.330Z,98226.56
2023-11-13T12:14:24.766Z,98226.08
2023-11-13T12:16:58.876Z,98222.39
2023-11-13T12:19:32.707Z,98222.58
2023-11-13T12:22:07.144Z,98216.63
2023-11-13T12:24:41.505Z,98215.16
2023-11-13T12:27:30.623Z,98209.25
2023-11-13T12:30:16.350Z,98206.57
2023-11-13T12:32:51.465Z,98206.77
2023-11-13T12:35:26.268Z,98205.23
2023-11-13T12:38:00.152Z,98203.96
2023-11-13T12:40:35.778Z,98199.50
2023-11-13T12:43:09.735Z,98202.45
2023-11-13T12:45:43.458Z,98205.54
2023-11-13T12:48:23.987Z,98202.85
2023-11-13T12:51:02.407Z,98200.42
2023-11-13T12:53:36.601Z,98194.33
2023-11-13T12:56:11.866Z,98193.12
2023-11-13T12:58:51.726Z,98190.81
2023-11-13T13:01:25.608Z,98188.38
2023-11-13T13:04:00.028Z,98193.20
2023-11-13T13:06:39.056Z,98184.33
2023-11-13T13:09:14.965Z,98184.69
2023-11-13T13:11:50.303Z,98177.84
2023-11-13T13:14:24.843Z,98178.87
2023-11-13T13:17:01.554Z,98177.84
2023-11-13T13:19:39.605Z,98174.38
2023-11-13T13:22:14.225Z,98177.39
2023-11-13T13:27:42.632Z,98167.86
2023-11-13T13:30:53.634Z,98158.14
2023-11-13T13:33:52.742Z,98151.92
2023-11-13T13:36:44.639Z,98149.69
2023-11-13T13:39:52.435Z,98147.34
2023-11-13T13:42:41.696Z,98138.90
2023-11-13T13:45:51.495Z,98143.31
2023-11-13T13:51:55.401Z,98138.50
2023-11-13T13:54:59.464Z,98132.52
2023-11-13T13:57:50.701Z,98127.96
2023-11-13T14:01:01.494Z,98132.66
2023-11-13T14:04:14.567Z,98132.56
2023-11-13T14:07:00.638Z,98131.90
2023-11-13T14:09:34.511Z,98137.34
2023-11-13T14:12:18.759Z,98136.49
2023-11-13T14:18:15.752Z,98134.70
2023-11-13T14:20:53.539Z,98129.59
2023-11-13T14:23:32.829Z,98126.80
2023-11-13T14:26:17.734Z,98121.28
2023-11-13T14:28:59.446Z,98112.95
2023-11-13T14:31:35.068Z,98105.84
2023-11-13T14:34:09.484Z,98106.98
2023-11-13T14:36:44.641Z,98107.83
2023-11-13T14:39:22.173Z,98113.46
2023-11-13T14:41:56.250Z,98116.27
2023-11-13T14:44:30.173Z,98111.59
2023-11-13T14:47:05.289Z,98110.90
2023-11-13T14:49:39.738Z,98106.43
2023-11-13T14:52:24.406Z,98107.59
2023-11-13T14:55:14.904Z,98106.40
2023-11-13T14:57:52.160Z,98104.10
2023-11-13T15:00:28.493Z,98103.97
2023-11-13T15:03:04.613Z,98096.62
2023-11-13T15:05:40.633Z,98095.23
2023-11-13T15:08:15.729Z,98097.03
2023-11-13T15:10:52.831Z,98097.52
2023-11-13T15:13:26.876Z,98095.98
2023-11-13T15:16:03.070Z,98097.23
2023-11-13T15:18:47.531Z,98098.31
2023-11-13T15:21:27.601Z,98093.55
2023-11-13T15:24:06.538Z,98089.48
2023-11-13T15:26:42.012Z,98085.27
2023-11-13T15:29:26.827Z,98076.59
2023-11-13T15:32:01.573Z,98068.95
2023-11-13T15:34:36.639Z,98064.13
2023-11-13T15:37:12.340Z,98064.52
2023-11-13T15:39:46.273Z,98055.48
2023-11-13T15:42:21.258Z,98049.27
2023-11-13T15:44:55.612Z,98048.89
2023-11-13T15:47:30.464Z,98043.84
2023-11-13T15:50:07.250Z,98042.55
2023-11-13T15:52:44.930Z,98033.14
2023-11-13T15:55:19.924Z,98028.08
2023-11-13T15:57:55.123Z,98026.96
2023-11-13T16:00:30.391Z,98023.56
2023-11-13T16:03:07.829Z,98025.23
2023-11-13T16:05:41.994Z,98023.74
2023-11-13T16:08:18.513Z,98025.73
2023-11-13T16:10:52.383Z,98024.89
2023-11-13T16:13:27.012Z,98015.30
2023-11-13T16:16:01.013Z,98013.11
2023-11-13T16:18:40.422Z,98009.63
2023-11-13T16:21:18.540Z,98009.62
2023-11-13T16:23:59.175Z,98006.73
2023-11-13T16:26:55.841Z,98003.45
2023-11-13T16:29:30.184Z,97997.31
2023-11-13T16:32:05.728Z,98003.09
2023-11-13T16:34:40.547Z,98006.70
2023-11-13T16:37:14.498Z,98004.65
2023-11-13T16:39:48.074Z,98004.15
2023-11-13T16:42:21.607Z,98005.85
2023-11-13T16:44:55.389Z,98005.27
2023-11-13T16:47:34.417Z,98001.54
2023-11-13T16:50:10.433Z,97995.17
2023-11-13T16:52:44.220Z,97995.16
2023-11-13T16:55:18.719Z,98001.40
2023-11-13T16:57:53.594Z,98006.98
2023-11-13T17:00:27.803Z,98007.16
2023-11-13T17:03:01.852Z,98008.37
2023-11-13T17:05:37.500Z,98011.81
2023-11-13T17:08:11.902Z,98011.60
2023-11-13T17:10:46.393Z,98014.31
2023-11-13T17:13:20.483Z,98010.95
2023-11-13T17:15:54.590Z,98009.30
2023-11-13T17:18:29.032Z,98003.71
2023-11-13T17:21:04.755Z,98008.06
2023-11-13T17:23:39.024Z,98008.50
2023-11-13T17:26:13.170Z,98000.41
2023-11-13T17:28:47.289Z,97998.70
2023-11-13T17:31:24.229Z,97998.09
2023-11-13T17:33:58.018Z,97993.39
2023-11-13T17:36:33.651Z,97983.39
2023-11-13T17:39:08.889Z,97973.00
2023-11-13T17:41:44.053Z,97963.04
2023-11-13T17:44:20.782Z,97961.34
2023-11-13T17:46:54.674Z,97955.48
2023-11-13T17:49:29.080Z,97947.83
2023-11-13T17:52:04.850Z,97944.36
2023-11-13T17:54:39.198Z,97948.45
2023-11-13T17:57:15.204Z,97951.30
2023-11-13T17:59:50.695Z,97947.59
2023-11-13T18:02:26.494Z,97950.19
2023-11-13T18:05:00.563Z,97943.08
2023-11-13T18:07:34.672Z,97938.39
2023-11-13T18:10:11.047Z,97935.26
2023-11-13T18:12:45.795Z,97929.44
2023-11-13T18:15:19.295Z,97924.51
2023-11-13T18:17:52.974Z,97920.50
2023-11-13T18:20:29.776Z,97914.02
2023-11-13T18:23:10.076Z,97908.95
2023-11-13T18:26:01.297Z,97897.02
2023-11-13T18:28:36.203Z,97888.39
2023-11-13T18:31:11.280Z,97883.19
2023-11-13T18:33:45.789Z,97878.25
2023-11-13T18:36:20.213Z,97874.99
2023-11-13T18:38:57.149Z,97870.79
2023-11-13T18:41:31.353Z,97873.52
2023-11-13T18:44:04.999Z,97873.96
2023-11-13T18:46:39.061Z,97870.08
2023-11-13T18:49:12.983Z,97863.77
2023-11-13T18:51:46.889Z,97857.55
2023-11-13T18:54:20.741Z,97858.78
2023-11-13T18:56:54.962Z,97861.56
2023-11-13T18:59:29.145Z,97862.66
2023-11-13T19:02:03.340Z,97850.77
2023-11-13T19:04:38.466Z,97846.07
2023-11-13T19:07:12.436Z,97843.00
2023-11-13T19:09:46.429Z,97843.98
2023-11-13T19:12:20.438Z,97838.24
2023-11-13T19:14:54.555Z,97819.67
2023-11-13T19:17:29.055Z,97808.92
2023-11-13T19:20:03.385Z,97803.58
2023-11-13T19:22:37.177Z,97790.64
2023-11-13T19:25:12.528Z,97782.52
2023-11-13T19:27:46.439Z,97777.70
2023-11-13T19:30:21.502Z,97771.73
2023-11-13T19:33:01.343Z,97767.32
2023-11-13T19:35:38.533Z,97756.45
2023-11-13T19:38:12.826Z,97759.52
2023-11-13T19:40:47.404Z,97763.26
2023-11-13T19:43:23.085Z,97762.03
2023-11-13T19:45:58.198Z,97764.73
2023-11-13T19:48:33.133Z,97766.31
2023-11-13T19:51:09.908Z,97770.04
2023-11-13T19:53:44.962Z,97764.41
2023-11-13T19:56:21.408Z,97766.55
2023-11-13T19:58:55.943Z,97761.64
2023-11-13T20:01:30.206Z,97759.84
2023-11-13T20:04:05.205Z,97752.79
2023-11-13T20:06:39.185Z,97747.56
2023-11-13T20:09:16.099Z,97735.77
2023-11-13T20:11:50.165Z,97718.47
2023-11-13T20:14:25.530Z,97704.67
2023-11-13T20:16:59.607Z,97702.42
2023-11-13T20:19:33.812Z,97709.76
2023-11-13T20:22:07.849Z,97708.27
2023-11-13T20:24:41.715Z,97697.50
2023-11-13T20:27:16.624Z,97692.77
2023-11-13T20:30:03.801Z,97686.17
2023-11-13T20:32:40.244Z,97675.84
2023-11-13T20:35:17.842Z,97675.72
2023-11-13T20:37:53.530Z,97668.38
2023-11-13T20:40:27.751Z,97662.90
2023-11-13T20:43:01.251Z,97655.69
2023-11-13T20:45:34.939Z,97655.19
2023-11-13T20:48:10.020Z,97649.98
2023-11-13T20:50:44.257Z,97644.10
2023-11-13T20:53:19.667Z,97635.79
2023-11-13T20:55:53.634Z,97630.58
2023-11-13T20:58:28.162Z,97629.77
2023-11-13T21:01:01.881Z,97626.02
2023-11-13T21:03:35.480Z,97616.88
2023-11-13T21:06:09.816Z,97623.40
2023-11-13T21:08:43.355Z,97626.56
2023-11-13T21:11:17.670Z,97632.43
2023-11-13T21:13:51.222Z,97617.67
2023-11-13T21:16:25.897Z,97616.26
2023-11-13T21:19:00.011Z,97603.48
2023-11-13T21:21:36.187Z,97598.23
2023-11-13T21:24:12.417Z,97593.89
2023-11-13T21:26:46.076Z,97592.28
2023-11-13T21:29:19.907Z,97591.77
2023-11-13T21:31:55.657Z,97589.20
2023-11-13T21:34:29.511Z,97581.44
2023-11-13T21:37:03.460Z,97574.77
2023-11-13T21:39:37.251Z,97559.45
2023-11-13T21:42:11.955Z,97542.49
2023-11-13T21:44:46.305Z,97530.92
2023-11-13T21:47:19.843Z,97514.14
2023-11-13T21:49:53.470Z,97507.71
2023-11-13T21:52:26.992Z,97488.98
2023-11-13T21:55:00.681Z,97478.76
2023-11-13T21:57:34.605Z,97464.75
2023-11-13T22:00:12.420Z,97457.13
2023-11-13T22:02:48.170Z,97440.45
2023-11-13T22:05:22.186Z,97432.18
2023-11-13T22:07:55.794Z,97418.98
2023-11-13T22:10:29.410Z,97412.18
2023-11-13T22:13:03.585Z,97417.08
2023-11-13T22:15:37.943Z,97415.95
2023-11-13T22:18:11.896Z,97422.31
2023-11-13T22:20:45.666Z,97418.30
2023-11-13T22:23:19.353Z,97413.41
2023-11-13T22:25:53.112Z,97415.73
2023-11-13T22:28:26.790Z,97401.23
2023-11-13T22:31:00.443Z,97369.19
2023-11-13T22:33:34.178Z,97372.42
2023-11-13T22:36:09.050Z,97368.67
2023-11-13T22:38:42.658Z,97353.52
2023-11-13T22:41:16.994Z,97349.70
2023-11-13T22:43:50.612Z,97346.46
2023-11-13T22:46:24.420Z,97327.45
2023-11-13T22:48:58.068Z,97318.00
2023-11-13T22:51:32.597Z,97318.14
2023-11-13T22:54:06.414Z,97320.39
2023-11-13T22:56:40.207Z,97313.41
2023-11-13T22:59:14.152Z,97300.92
2023-11-13T23:01:47.782Z,97299.82
2023-11-13T23:04:21.839Z,97284.94
2023-11-13T23:06:56.457Z,97270.39
2023-11-13T23:09:30.428Z,97269.90
2023-11-13T23:12:04.353Z,97263.21
2023-11-13T23:14:40.866Z,97262.02
2023-11-13T23:17:16.946Z,97257.46
2023-11-13T23:19:50.547Z,97257.45
2023-11-13T23:22:24.126Z,97245.59
2023-11-13T23:24:57.860Z,97239.73
2023-11-13T23:27:32.059Z,97233.27
2023-11-13T23:30:09.460Z,97222.14
2023-11-13T23:32:43.585Z,97213.59
2023-11-13T23:35:17.522Z,97208.44
2023-11-13T23:37:51.633Z,97209.31
2023-11-13T23:40:26.024Z,97209.33
2023-11-13T23:42:59.627Z,97215.10
2023-11-13T23:45:34.028Z,97207.80
2023-11-13T23:48:10.245Z,97202.66
2023-11-13T23:50:43.957Z,97196.98
2023-11-13T23:53:17.419Z,97194.45
2023-11-13T23:55:50.906Z,97195.95
2023-11-13T23:58:24.415Z,97192.26
